Latest Weather Observations for Taree Airport

IDN60801

Issued at 4:05 pm EDT Tuesday 21 October 2014 (issued every 30 minutes, with the page automatically refreshed every 10 minutes)

About weather observations | Map of weather stations | Latest weather observations for NSW | Other Formats
Station Details ID: 060141 Name: TAREE AIRPORT AWS Lat: -31.89 Lon: 152.51 Height: 8.0 m
Data from the previous 72 hours. | See also: Recent months at Taree Airport
Date/Time
EDT
Temp
°C
App
Temp
°C
Dew
Point
Rel
Hum
%
Delta-T
°C
Wind Press
QNH
hPa
Press
MSL
hPa
Rain
since 9 am
mm
Dir
 
Spd
km/h
Gust
km/h
Spd
kts
Gust
kts
21/04:00pm 18.5 14.3 7.3 48 5.6 SE 19 26 10 14 1029.2 1029.2 0.0
21/03:30pm 18.6 14.5 7.7 49 5.5 SE 19 28 10 15 1029.4 1029.4 0.0
21/03:00pm 18.4 14.7 8.1 51 5.2 SE 17 24 9 13 1029.8 1029.8 0.0
21/02:30pm 18.9 15.2 8.0 49 5.6 SE 17 24 9 13 1030.0 1030.0 0.0
21/02:00pm 19.2 15.8 9.1 52 5.3 SE 17 22 9 12 1030.3 1030.3 0.0
21/01:30pm 19.3 15.7 8.3 49 5.7 SE 17 24 9 13 1030.6 1030.6 0.0
21/01:00pm 19.4 15.6 7.5 46 6.0 SSE 17 26 9 14 1030.8 1030.8 0.0
21/12:30pm 19.5 16.4 7.3 45 6.2 SSE 13 20 7 11 1030.9 1030.9 0.0
21/12:00pm 18.9 15.4 7.0 46 5.9 SSE 15 24 8 13 1031.2 1031.2 0.0
21/11:30am 19.0 15.3 7.8 48 5.7 SSE 17 26 9 14 1031.3 1031.3 0.0
21/11:00am 18.7 15.0 8.1 50 5.4 SSE 17 26 9 14 1031.5 1031.5 0.0
21/10:30am 18.2 14.9 7.9 51 5.3 SE 15 20 8 11 1031.6 1031.6 0.0
21/10:00am 17.8 15.1 7.5 51 5.2 SSE 11 17 6 9 1031.7 1031.7 0.0
21/09:30am 17.6 14.3 8.2 54 4.8 SSE 15 19 8 10 1031.7 1031.7 0.0
21/09:00am 17.4 13.6 7.7 53 4.9 SSE 17 28 9 15 1031.4 1031.4 1.0
21/08:30am 17.3 15.0 9.0 58 4.3 SE 11 17 6 9 1031.1 1031.1 1.0
21/08:00am 16.9 14.4 9.8 63 3.7 SE 13 15 7 8 1030.8 1030.8 1.0
21/07:30am 16.4 14.1 10.5 68 3.1 SSE 13 19 7 10 1030.5 1030.5 1.0
21/07:00am 15.9 14.9 10.4 70 2.9 SSE 6 11 3 6 1030.2 1030.2 1.0
21/06:30am 15.6 15.7 11.4 76 2.3 W 2 7 1 4 1029.9 1029.9 1.0
21/06:00am 15.6 14.9 11.4 76 2.2 W 6 9 3 5 1029.5 1029.5 1.0
21/05:30am 15.5 14.4 10.5 72 2.6 SSW 7 9 4 5 1029.4 1029.4 1.0
21/05:00am 15.7 14.7 11.1 74 2.4 SSW 7 9 4 5 1029.2 1029.2 1.0
21/04:30am 15.6 16.1 11.6 77 2.2 CALM 0 0 0 0 1029.2 1029.2 1.0
21/04:00am 15.7 15.0 12.1 79 1.9 W 7 9 4 5 1029.3 1029.3 1.0
21/03:30am 15.8 14.6 11.6 76 2.3 WSW 9 11 5 6 1029.3 1029.3 1.0
21/03:00am 15.9 14.6 11.3 74 2.5 SSW 9 11 5 6 1029.3 1029.3 1.0
21/02:30am 16.0 14.5 12.0 77 2.2 SSW 11 13 6 7 1029.5 1029.5 1.0
21/02:00am 16.0 14.4 12.9 82 1.7 SSW 13 17 7 9 1029.8 1029.8 1.0
21/01:30am 15.8 14.7 13.1 84 1.5 SW 11 13 6 7 1029.9 1029.9 1.0
21/01:00am 16.0 14.3 12.6 80 1.9 WSW 13 17 7 9 1030.0 1030.0 1.0
21/12:30am 15.9 15.5 13.0 83 1.6 W 7 11 4 6 1030.3 1030.3 1.0
21/12:00am 15.9 14.8 13.2 84 1.5 SW 11 15 6 8 1030.5 1030.5 1.0
 
Date/Time
EDT
Temp
°C
App
Temp
°C
Dew
Point
Rel
Hum
%
Delta-T
°C
Wind Press
QNH
hPa
Press
MSL
hPa
Rain
since 9 am
mm
Dir
 
Spd
km/h
Gust
km/h
Spd
kts
Gust
kts
20/11:30pm 16.3 14.8 13.0 81 1.8 S 13 20 7 11 1030.7 1030.7 1.0
20/11:00pm 16.6 16.2 13.1 80 1.9 S 7 9 4 5 1030.6 1030.6 1.0
20/10:30pm 16.7 15.5 12.7 77 2.2 SSW 11 13 6 7 1030.6 1030.6 1.0
20/10:00pm 16.6 15.3 12.6 77 2.2 S 11 15 6 8 1030.4 1030.4 1.0
20/09:30pm 16.5 14.9 12.8 79 2.1 S 13 17 7 9 1030.3 1030.3 1.0
20/09:00pm 16.5 14.7 13.4 82 1.7 S 15 22 8 12 1030.0 1030.0 1.0
20/08:30pm 16.6 15.4 14.1 85 1.4 S 13 19 7 10 1029.7 1029.7 1.0
20/08:00pm 16.6 16.2 14.1 85 1.4 SSW 9 13 5 7 1029.1 1029.1 1.0
20/07:30pm 16.6 15.6 14.6 88 1.1 S 13 19 7 10 1028.8 1028.8 1.0
20/07:00pm 16.5 15.7 15.2 92 0.7 S 13 19 7 10 1028.6 1028.6 1.0
20/06:30pm 16.9 16.8 15.9 94 0.6 S 11 15 6 8 1028.1 1028.1 0.8
20/06:00pm 16.9 16.7 15.8 93 0.6 S 11 17 6 9 1028.1 1028.1 0.6
20/05:30pm 19.2 16.5 13.4 69 3.3 SSW 20 28 11 15 1027.7 1027.7 0.2
20/05:00pm 19.4 16.1 12.9 66 3.6 SSW 22 32 12 17 1027.6 1027.6 0.2
20/04:30pm 20.3 17.7 13.3 64 4.0 S 19 26 10 14 1027.4 1027.4 0.2
20/04:00pm 19.8 16.9 13.0 65 3.8 SSW 20 32 11 17 1027.4 1027.4 0.2
20/03:30pm 19.9 16.3 12.9 64 4.0 S 24 32 13 17 1027.5 1027.5 0.2
20/03:00pm 20.1 16.4 12.8 63 4.1 S 24 35 13 19 1027.5 1027.5 0.2
20/02:30pm 20.5 16.9 13.0 62 4.3 SSW 24 33 13 18 1027.6 1027.6 0.2
20/02:00pm 19.1 14.9 13.5 70 3.2 SSW 28 43 15 23 1028.1 1028.1 0.2
20/01:30pm 19.3 15.7 14.1 72 3.0 SSW 26 35 14 19 1028.0 1028.0 0.2
20/01:00pm 19.0 14.2 14.7 76 2.5 S 33 43 18 23 1027.9 1027.9 0.2
20/12:30pm 20.7 15.8 15.3 71 3.2 S 35 48 19 26 1027.5 1027.5 0.0
20/12:01pm 22.2 16.9 15.3 65 4.1 SSW 37 57 20 31 1027.3 1027.3 0.0
20/12:00pm 22.5 17.3 15.6 65 4.1 SSW 37 48 20 26 1027.3 1027.3 0.0
20/11:30am 22.1 17.6 15.5 66 3.9 SSW 33 44 18 24 1027.1 1027.1 0.0
20/11:00am 23.4 18.3 14.9 59 5.0 SSW 35 48 19 26 1026.4 1026.4 0.0
20/10:30am 23.9 17.7 13.7 53 6.0 S 39 50 21 27 1025.9 1025.9 0.0
20/10:23am 23.8 17.8 12.1 48 6.6 S 35 48 19 26 1025.7 1025.7 0.0
20/10:00am 22.0 20.7 13.6 59 4.8 SW 13 17 7 9 1025.2 1025.2 0.0
20/09:30am 20.7 21.4 13.4 63 4.2 NW 2 11 1 6 1024.0 1024.0 0.0
20/09:00am 18.5 18.7 12.9 70 3.1 W 4 9 2 5 1024.0 1024.0 0.0
20/08:30am 16.3 15.8 12.5 78 2.1 W 7 7 4 4 1023.6 1023.6 0.0
20/08:00am 14.6 14.2 12.5 87 1.1 W 6 7 3 4 1023.5 1023.5 0.0
20/07:30am 12.8 12.0 11.7 93 0.6 W 7 9 4 5 1023.5 1023.5 0.0
20/07:00am 11.8 12.2 11.3 97 0.3 CALM 0 0 0 0 1023.1 1023.1 0.0
20/06:30am 11.1 11.4 10.8 98 0.2 CALM 0 0 0 0 1022.8 1022.8 0.0
20/06:00am 10.4 10.4 9.9 97 0.3 CALM 0 0 0 0 1022.7 1022.7 0.0
20/05:30am 9.8 9.6 9.2 96 0.3 CALM 0 0 0 0 1022.4 1022.4 0.0
20/05:00am 10.8 10.5 10.2 96 0.3 N 2 7 1 4 1022.1 1022.1 0.0
20/04:30am 10.9 11.0 10.1 95 0.4 CALM 0 0 0 0 1022.0 1022.0 0.0
20/04:00am 11.4 11.6 10.6 95 0.4 CALM 0 0 0 0 1022.1 1022.1 0.0
20/03:30am 12.0 12.4 11.4 96 0.3 CALM 0 0 0 0 1022.2 1022.2 0.0
20/03:00am 12.3 12.8 11.5 95 0.4 CALM 0 0 0 0 1022.5 1022.5 0.0
20/02:30am 12.2 12.6 11.1 93 0.6 CALM 0 0 0 0 1022.9 1022.9 0.0
20/02:00am 12.2 12.5 10.9 92 0.7 CALM 0 0 0 0 1023.2 1023.2 0.0
20/01:30am 12.8 13.2 11.4 91 0.7 CALM 0 0 0 0 1023.5 1023.5 0.0
20/01:00am 13.0 13.4 11.2 89 0.9 CALM 0 0 0 0 1023.7 1023.7 0.0
20/12:30am 14.0 14.8 12.4 90 0.9 CALM 0 0 0 0 1024.1 1024.1 0.0
20/12:00am 13.8 14.3 11.5 86 1.2 CALM 0 0 0 0 1024.5 1024.5 0.0
 
Date/Time
EDT
Temp
°C
App
Temp
°C
Dew
Point
Rel
Hum
%
Delta-T
°C
Wind Press
QNH
hPa
Press
MSL
hPa
Rain
since 9 am
mm
Dir
 
Spd
km/h
Gust
km/h
Spd
kts
Gust
kts
19/11:30pm 14.0 14.4 11.2 83 1.5 CALM 0 0 0 0 1024.6 1024.6 0.0
19/11:00pm 14.6 14.9 11.0 79 1.9 CALM 0 0 0 0 1024.7 1024.7 0.0
19/10:30pm 15.2 15.2 11.0 76 2.2 NNE 2 7 1 4 1024.8 1024.8 0.0
19/10:00pm 16.2 15.4 11.6 74 2.5 NNE 7 9 4 5 1024.9 1024.9 0.0
19/09:30pm 15.8 14.5 11.4 75 2.4 NE 9 13 5 7 1024.9 1024.9 0.0
19/09:00pm 16.0 14.4 11.6 75 2.4 NE 11 13 6 7 1024.8 1024.8 0.0
19/08:30pm 16.1 14.5 11.5 74 2.5 NE 11 13 6 7 1024.5 1024.5 0.0
19/08:00pm 16.9 15.1 12.0 73 2.7 ENE 13 15 7 8 1024.2 1024.2 0.0
19/07:30pm 17.8 16.0 12.0 69 3.2 ENE 13 17 7 9 1023.9 1023.9 0.0
19/07:00pm 18.8 16.2 12.1 65 3.7 ENE 17 22 9 12 1023.7 1023.7 0.0
19/06:30pm 19.7 16.5 12.0 61 4.3 ENE 20 30 11 16 1023.5 1023.5 0.0
19/06:00pm 20.6 17.5 12.3 59 4.6 ENE 20 30 11 16 1023.4 1023.4 0.0
19/05:30pm 21.2 17.5 12.6 58 4.9 ENE 24 32 13 17 1023.2 1023.2 0.0
19/05:00pm 21.7 18.9 13.3 59 4.8 E 20 32 11 17 1023.1 1023.1 0.0
19/04:30pm 21.8 18.5 12.9 57 5.1 E 22 33 12 18 1023.1 1023.1 0.0
19/04:00pm 22.2 18.2 13.0 56 5.2 E 26 33 14 18 1023.2 1023.2 0.0
19/03:30pm 21.8 18.1 12.6 56 5.2 E 24 33 13 18 1023.4 1023.4 0.0
19/03:00pm 21.9 18.5 12.5 55 5.3 E 22 30 12 16 1024.0 1024.0 0.0
19/02:30pm 22.4 19.6 13.2 56 5.3 ENE 20 30 11 16 1024.5 1024.5 0.0
19/02:00pm 22.8 19.9 14.1 58 5.1 ESE 22 28 12 15 1024.9 1024.9 0.0
19/01:30pm 22.3 19.6 13.6 58 5.0 ESE 20 26 11 14 1025.3 1025.3 0.0
19/01:00pm 23.3 21.4 14.3 57 5.3 ESE 17 26 9 14 1025.5 1025.5 0.0
19/12:30pm 23.5 22.0 11.9 48 6.6 NE 11 17 6 9 1025.7 1025.7 0.0
19/12:00pm 22.1 20.2 10.6 48 6.3 ESE 11 15 6 8 1026.2 1026.2 0.0
19/11:30am 22.2 20.1 11.3 50 6.1 NE 13 20 7 11 1026.6 1026.6 0.0
19/11:00am 21.0 19.3 9.9 49 5.9 NE 9 19 5 10 1027.0 1027.0 0.0
19/10:30am 21.0 20.4 12.4 58 4.8 ENE 7 15 4 8 1027.6 1027.6 0.0
19/10:00am 19.8 19.2 11.8 60 4.4 NE 6 11 3 6 1027.8 1027.8 0.0
19/09:30am 18.7 18.8 11.5 63 3.9 SSW 2 9 1 5 1028.0 1028.0 0.0
19/09:00am 16.9 16.5 11.2 69 3.1 S 4 7 2 4 1028.0 1028.0 0.0
19/08:30am 15.9 15.5 12.3 79 2.0 WNW 6 9 3 5 1027.8 1027.8 0.0
19/08:00am 13.6 12.2 10.9 84 1.4 W 9 9 5 5 1027.8 1027.8 0.0
19/07:30am 12.3 10.8 10.5 89 0.9 WNW 9 11 5 6 1027.9 1027.9 0.0
19/07:00am 11.2 11.4 10.6 96 0.3 CALM 0 4 0 2 1027.7 1027.7 0.0
19/06:30am 10.0 9.9 9.4 96 0.3 CALM 0 0 0 0 1027.4 1027.4 0.0
19/06:00am 10.3 9.1 9.7 96 0.3 W 6 7 3 4 1027.1 1027.1 0.0
19/05:30am 10.4 10.3 9.6 95 0.4 CALM 0 0 0 0 1026.8 1026.8 0.0
19/05:00am 10.7 10.8 10.1 96 0.3 CALM 0 0 0 0 1026.8 1026.8 0.0
19/04:30am 10.8 10.9 10.2 96 0.3 CALM 0 0 0 0 1026.6 1026.6 0.0
19/04:00am 10.9 11.0 10.1 95 0.4 CALM 0 0 0 0 1026.7 1026.7 0.0
19/03:30am 11.7 11.9 10.4 92 0.7 CALM 0 0 0 0 1027.0 1027.0 0.0
19/03:00am 12.3 12.6 11.0 92 0.7 CALM 0 0 0 0 1027.4 1027.4 0.0
19/02:30am 12.6 13.0 11.2 91 0.7 CALM 0 0 0 0 1027.5 1027.5 0.0
19/02:00am 13.0 13.3 10.9 87 1.1 CALM 0 0 0 0 1027.6 1027.6 0.0
19/01:30am 13.6 13.9 10.8 83 1.5 CALM 0 4 0 2 1027.8 1027.8 0.0
19/01:00am 14.2 14.7 11.7 85 1.3 CALM 0 0 0 0 1028.0 1028.0 0.0
19/12:30am 15.3 14.6 11.9 80 1.8 W 7 9 4 5 1028.4 1028.4 0.0
19/12:00am 15.4 15.6 11.8 79 1.9 NW 2 6 1 3 1028.5 1028.5 0.0
 
Date/Time
EDT
Temp
°C
App
Temp
°C
Dew
Point
Rel
Hum
%
Delta-T
°C
Wind Press
QNH
hPa
Press
MSL
hPa
Rain
since 9 am
mm
Dir
 
Spd
km/h
Gust
km/h
Spd
kts
Gust
kts
18/11:30pm 15.2 14.8 12.3 83 1.6 NNW 6 7 3 4 1028.5 1028.5 0.0
18/11:00pm 16.0 16.5 11.6 75 2.4 CALM 0 2 0 1 1028.7 1028.7 0.0
18/10:30pm 16.3 16.3 12.3 77 2.2 NW 4 9 2 5 1029.0 1029.0 0.0
18/10:00pm 16.3 15.8 11.9 75 2.4 SSW 6 7 3 4 1029.0 1029.0 0.0
18/09:30pm 16.7 17.3 11.8 73 2.7 CALM 0 0 0 0 1029.0 1029.0 0.0
18/09:00pm 16.8 16.3 10.6 67 3.3 ESE 4 6 2 3 1028.8 1028.8 0.0
18/08:30pm 16.6 16.1 10.7 68 3.1 E 4 7 2 4 1028.6 1028.6 0.0
18/08:00pm 16.7 15.8 10.8 68 3.1 ESE 6 7 3 4 1028.3 1028.3 0.0
18/07:30pm 16.7 15.6 10.5 67 3.3 E 7 7 4 4 1027.9 1027.9 0.0
18/07:00pm 16.7 15.5 9.6 63 3.7 ESE 6 7 3 4 1027.6 1027.6 0.0
18/06:30pm 17.1 14.9 9.3 60 4.1 SE 11 15 6 8 1027.2 1027.2 0.0
18/06:00pm 18.0 15.4 9.4 57 4.5 ESE 13 20 7 11 1027.0 1027.0 0.0
18/05:30pm 18.3 15.2 10.2 59 4.3 ESE 17 22 9 12 1026.9 1026.9 0.0
18/05:00pm 18.7 15.1 9.8 56 4.7 ESE 19 26 10 14 1026.6 1026.6 0.0
18/04:30pm 18.8 15.1 9.3 54 5.0 SE 19 26 10 14 1026.4 1026.4 0.0

Other Formats:

Comma delimited format used in spreadsheet applications
http://www.bom.gov.au/fwo/IDN60801/IDN60801.95784.axf

JavaScript Object Notation format (JSON) in row-major order
http://www.bom.gov.au/fwo/IDN60801/IDN60801.95784.json